createdAt,value
2022-12-18T00:01:14.399Z,0.20
2022-12-18T00:03:42.067Z,0.20
2022-12-18T00:06:09.541Z,0.20
2022-12-18T00:08:36.680Z,0.10
2022-12-18T00:11:08.311Z,0.10
2022-12-18T00:13:36.486Z,0.10
2022-12-18T00:16:05.159Z,0.10
2022-12-18T00:18:32.492Z,0.00
2022-12-18T00:21:01.233Z,0.00
2022-12-18T00:23:28.693Z,0.00
2022-12-18T00:25:56.315Z,0.00
2022-12-18T00:28:23.401Z,0.00
2022-12-18T00:30:52.600Z,0.00
2022-12-18T00:33:19.707Z,0.20
2022-12-18T00:35:46.819Z,0.10
2022-12-18T00:38:14.729Z,0.10
2022-12-18T00:40:42.198Z,0.00
2022-12-18T00:43:09.786Z,0.10
2022-12-18T00:45:36.997Z,0.10
2022-12-18T00:48:04.297Z,0.00
2022-12-18T00:50:31.775Z,0.00
2022-12-18T00:52:58.995Z,0.00
2022-12-18T00:55:26.072Z,0.00
2022-12-18T00:57:53.509Z,0.00
2022-12-18T01:00:20.785Z,0.00
2022-12-18T01:02:48.085Z,0.00
2022-12-18T01:05:15.816Z,0.00
2022-12-18T01:07:42.934Z,0.00
2022-12-18T01:10:11.023Z,0.00
2022-12-18T01:12:40.514Z,0.10
2022-12-18T01:15:08.523Z,0.00
2022-12-18T01:17:38.267Z,0.10
2022-12-18T01:20:06.512Z,0.00
2022-12-18T01:22:33.746Z,0.00
2022-12-18T01:25:00.844Z,0.00
2022-12-18T01:27:29.311Z,2.20
2022-12-18T01:29:56.542Z,0.00
2022-12-18T01:32:23.898Z,0.00
2022-12-18T01:34:53.207Z,0.00
2022-12-18T01:37:20.573Z,0.00
2022-12-18T01:39:47.682Z,0.10
2022-12-18T01:42:15.791Z,0.00
2022-12-18T01:44:58.014Z,0.00
2022-12-18T01:47:43.770Z,-0.20
2022-12-18T01:50:12.818Z,0.00
2022-12-18T01:52:41.575Z,0.00
2022-12-18T01:55:10.894Z,0.00
2022-12-18T01:57:38.864Z,0.60
2022-12-18T02:00:10.017Z,0.90
2022-12-18T02:02:37.230Z,-0.10
2022-12-18T02:05:04.624Z,0.00
2022-12-18T02:07:31.769Z,0.00
2022-12-18T02:10:21.663Z,0.00
2022-12-18T02:12:48.719Z,0.00
2022-12-18T02:15:42.281Z,0.00
2022-12-18T02:18:17.161Z,0.00
2022-12-18T02:20:44.206Z,0.10
2022-12-18T02:23:42.151Z,0.00
2022-12-18T02:26:27.452Z,0.10
2022-12-18T02:29:00.938Z,0.50
2022-12-18T02:31:29.372Z,0.00
2022-12-18T02:33:57.764Z,0.10
2022-12-18T02:36:25.794Z,0.00
2022-12-18T02:38:53.541Z,0.00
2022-12-18T02:41:21.554Z,0.00
2022-12-18T02:43:49.681Z,0.00
2022-12-18T02:46:28.591Z,0.00
2022-12-18T02:49:02.669Z,0.00
2022-12-18T02:51:56.338Z,1.00
2022-12-18T02:54:44.850Z,0.00
2022-12-18T02:57:25.817Z,0.00
2022-12-18T03:00:16.143Z,0.00
2022-12-18T03:02:48.719Z,0.00
2022-12-18T03:05:29.831Z,0.00
2022-12-18T03:08:20.375Z,-0.10
2022-12-18T03:10:52.081Z,0.00
2022-12-18T03:13:27.339Z,-0.20
2022-12-18T03:15:56.804Z,-0.10
2022-12-18T03:18:26.017Z,-0.20
2022-12-18T03:20:54.119Z,0.80
2022-12-18T03:23:27.038Z,-0.30
2022-12-18T03:26:01.893Z,-0.10
2022-12-18T03:28:35.187Z,-0.10
2022-12-18T03:31:06.019Z,-0.10
2022-12-18T03:33:39.201Z,-0.10
2022-12-18T03:36:06.575Z,0.00
2022-12-18T03:38:33.754Z,0.00
2022-12-18T03:41:07.342Z,0.00
2022-12-18T03:43:37.617Z,0.10
2022-12-18T03:46:12.692Z,0.10
2022-12-18T03:48:43.030Z,0.20
2022-12-18T03:51:21.980Z,0.20
2022-12-18T03:53:58.960Z,0.20
2022-12-18T03:56:29.011Z,0.20
2022-12-18T03:58:57.220Z,0.30
2022-12-18T04:01:29.626Z,0.30
2022-12-18T04:03:57.267Z,1.20
2022-12-18T04:06:24.811Z,0.40
2022-12-18T04:08:52.201Z,0.30
2022-12-18T04:11:19.371Z,0.30
2022-12-18T04:13:46.568Z,0.40
2022-12-18T04:16:15.003Z,0.30
2022-12-18T04:18:42.242Z,0.30
2022-12-18T04:21:09.513Z,0.40
2022-12-18T04:23:36.780Z,0.40
2022-12-18T04:26:06.166Z,0.40
2022-12-18T04:28:33.239Z,0.50
2022-12-18T04:31:00.398Z,0.40
2022-12-18T04:33:27.528Z,0.40
2022-12-18T04:35:54.615Z,0.40
2022-12-18T04:38:22.027Z,0.40
2022-12-18T04:40:49.142Z,0.40
2022-12-18T04:43:16.393Z,0.30
2022-12-18T04:45:43.572Z,0.40
2022-12-18T04:48:10.619Z,1.00
2022-12-18T04:50:38.182Z,0.30
2022-12-18T04:53:05.477Z,0.30
2022-12-18T04:55:32.708Z,0.40
2022-12-18T04:57:59.853Z,0.40
2022-12-18T05:00:27.095Z,0.40
2022-12-18T05:02:54.826Z,0.40
2022-12-18T05:05:21.932Z,0.40
2022-12-18T05:07:49.019Z,0.50
2022-12-18T05:10:16.340Z,0.50
2022-12-18T05:13:15.530Z,0.40
2022-12-18T05:15:42.952Z,0.50
2022-12-18T05:18:10.116Z,0.60
2022-12-18T05:20:37.220Z,0.60
2022-12-18T05:23:04.298Z,0.60
2022-12-18T05:25:31.359Z,0.70
2022-12-18T05:27:58.474Z,0.70
2022-12-18T05:30:28.860Z,0.70
2022-12-18T05:32:56.120Z,0.80
2022-12-18T05:35:23.238Z,0.70
2022-12-18T05:37:50.336Z,1.50
2022-12-18T05:40:19.716Z,0.80
2022-12-18T05:42:46.792Z,1.20
2022-12-18T05:45:13.859Z,0.80
2022-12-18T05:47:40.930Z,0.80
2022-12-18T05:50:08.639Z,0.80
2022-12-18T05:52:36.722Z,0.90
2022-12-18T05:55:04.665Z,0.90
2022-12-18T05:57:31.771Z,0.90
2022-12-18T05:59:58.974Z,0.90
2022-12-18T06:02:26.179Z,1.00
2022-12-18T06:04:53.401Z,1.10
2022-12-18T06:07:20.479Z,1.00
2022-12-18T06:09:48.124Z,1.10
2022-12-18T06:12:15.303Z,1.20
2022-12-18T06:14:42.486Z,1.20
2022-12-18T06:17:09.605Z,1.20
2022-12-18T06:19:36.876Z,1.30
2022-12-18T06:22:05.384Z,1.30
2022-12-18T06:24:32.494Z,1.20
2022-12-18T06:26:59.744Z,1.30
2022-12-18T06:29:26.919Z,3.00
2022-12-18T06:31:54.169Z,1.30
2022-12-18T06:34:21.567Z,1.30
2022-12-18T06:36:48.698Z,1.30
2022-12-18T06:39:16.297Z,1.30
2022-12-18T06:41:43.424Z,2.10
2022-12-18T06:44:10.601Z,1.40
2022-12-18T06:46:39.085Z,1.40
2022-12-18T06:49:06.447Z,1.50
2022-12-18T06:51:33.604Z,2.30
2022-12-18T06:54:00.749Z,1.50
2022-12-18T06:56:27.866Z,1.50
2022-12-18T06:58:55.974Z,1.50
2022-12-18T07:01:24.025Z,1.50
2022-12-18T07:03:55.233Z,1.50
2022-12-18T07:06:26.288Z,1.50
2022-12-18T07:08:55.120Z,1.50
2022-12-18T07:11:22.368Z,1.60
2022-12-18T07:13:49.491Z,1.50
2022-12-18T07:16:24.402Z,1.50
2022-12-18T07:18:53.493Z,1.60
2022-12-18T07:21:21.133Z,1.60
2022-12-18T07:23:49.219Z,1.30
2022-12-18T07:26:18.096Z,1.60
2022-12-18T07:28:45.766Z,1.60
2022-12-18T07:31:14.868Z,1.70
2022-12-18T07:33:42.788Z,1.70
2022-12-18T07:36:11.784Z,1.80
2022-12-18T07:38:42.501Z,1.70
2022-12-18T07:41:14.179Z,1.80
2022-12-18T07:43:42.347Z,1.80
2022-12-18T07:46:10.485Z,1.70
2022-12-18T07:48:39.482Z,1.70
2022-12-18T07:51:07.691Z,1.70
2022-12-18T07:53:36.470Z,1.70
2022-12-18T07:56:26.575Z,1.70
2022-12-18T07:58:53.416Z,1.70
2022-12-18T08:01:21.371Z,1.70
2022-12-18T08:03:52.516Z,1.70
2022-12-18T08:06:23.220Z,1.80
2022-12-18T08:08:55.654Z,1.80
2022-12-18T08:11:23.944Z,1.80
2022-12-18T08:13:51.177Z,1.80
2022-12-18T08:16:18.942Z,1.80
2022-12-18T08:18:46.743Z,1.90
2022-12-18T08:21:19.918Z,1.80
2022-12-18T08:23:49.042Z,1.90
2022-12-18T08:26:17.423Z,1.90
2022-12-18T08:28:46.346Z,1.90
2022-12-18T08:31:14.154Z,1.90
2022-12-18T08:33:42.305Z,1.90
2022-12-18T08:36:09.876Z,1.90
2022-12-18T08:38:37.200Z,2.00
2022-12-18T08:41:08.508Z,1.90
2022-12-18T08:43:54.700Z,2.00
2022-12-18T08:46:24.432Z,2.00
2022-12-18T08:48:53.135Z,1.90
2022-12-18T08:51:20.660Z,2.00
2022-12-18T08:53:48.217Z,2.00
2022-12-18T08:56:15.801Z,2.00
2022-12-18T08:58:43.422Z,2.00
2022-12-18T09:01:11.631Z,2.10
2022-12-18T09:03:40.436Z,2.00
2022-12-18T09:06:07.986Z,2.00
2022-12-18T09:08:35.122Z,2.00
2022-12-18T09:11:02.647Z,2.00
2022-12-18T09:13:29.929Z,2.00
2022-12-18T09:15:57.082Z,2.00
2022-12-18T09:18:24.877Z,1.90
2022-12-18T09:20:54.126Z,2.00
2022-12-18T09:23:21.565Z,2.00
2022-12-18T09:25:49.009Z,2.00
2022-12-18T09:28:17.460Z,2.00
2022-12-18T09:30:47.390Z,2.00
2022-12-18T09:33:14.780Z,2.00
2022-12-18T09:35:42.746Z,2.00
2022-12-18T09:38:12.738Z,2.00
2022-12-18T09:40:44.636Z,3.30
2022-12-18T09:43:34.829Z,3.40
2022-12-18T09:46:04.224Z,2.20
2022-12-18T09:48:41.388Z,2.30
2022-12-18T09:51:20.686Z,2.30
2022-12-18T09:53:51.705Z,2.30
2022-12-18T09:56:20.238Z,2.30
2022-12-18T09:58:57.881Z,2.20
2022-12-18T10:01:26.994Z,2.20
2022-12-18T10:03:56.864Z,2.30
2022-12-18T10:06:30.130Z,2.20
2022-12-18T10:09:33.150Z,3.60
2022-12-18T10:12:07.105Z,2.30
2022-12-18T10:14:41.609Z,2.30
2022-12-18T10:17:09.083Z,2.30
2022-12-18T10:19:50.450Z,2.30
2022-12-18T10:22:33.440Z,2.40
2022-12-18T10:25:05.727Z,2.40
2022-12-18T10:27:34.101Z,2.40
2022-12-18T10:30:02.216Z,2.40
2022-12-18T10:32:30.547Z,2.40
2022-12-18T10:35:00.822Z,2.40
2022-12-18T10:37:29.757Z,2.40
2022-12-18T10:40:21.878Z,2.40
2022-12-18T10:43:18.827Z,2.50
2022-12-18T10:45:58.635Z,2.50
2022-12-18T10:48:25.849Z,2.50
2022-12-18T10:53:41.636Z,2.50
2022-12-18T10:56:08.830Z,2.60
2022-12-18T10:58:36.607Z,2.60
2022-12-18T11:01:03.652Z,2.60
2022-12-18T11:03:33.750Z,2.70
2022-12-18T11:06:08.504Z,2.70
2022-12-18T11:08:35.907Z,2.70
2022-12-18T11:11:03.575Z,2.80
2022-12-18T11:13:33.183Z,2.80
2022-12-18T11:16:01.059Z,2.80
2022-12-18T11:18:28.431Z,2.80
2022-12-18T11:21:00.671Z,2.80
2022-12-18T11:23:28.269Z,2.80
2022-12-18T11:25:59.784Z,2.80
2022-12-18T11:28:28.970Z,2.90
2022-12-18T11:31:10.757Z,2.90
2022-12-18T11:33:38.996Z,3.00
2022-12-18T11:36:09.088Z,3.10
2022-12-18T11:38:38.010Z,3.20
2022-12-18T11:41:08.408Z,3.10
2022-12-18T11:43:42.258Z,3.30
2022-12-18T11:46:19.338Z,3.30
2022-12-18T11:49:05.597Z,3.30
2022-12-18T11:51:38.618Z,3.00
2022-12-18T11:54:12.722Z,3.30
2022-12-18T11:56:47.940Z,3.30
2022-12-18T11:59:15.691Z,3.30
2022-12-18T12:02:01.977Z,3.20
2022-12-18T12:04:30.531Z,3.20
2022-12-18T12:07:03.917Z,3.20
2022-12-18T12:09:37.195Z,3.30
2022-12-18T12:12:22.361Z,3.30
2022-12-18T12:14:50.774Z,3.30
2022-12-18T12:17:20.706Z,3.30
2022-12-18T12:19:56.981Z,3.30
2022-12-18T12:22:32.437Z,3.20
2022-12-18T12:25:11.434Z,3.00
2022-12-18T12:27:38.791Z,3.20
2022-12-18T12:30:19.683Z,3.30
2022-12-18T12:32:53.268Z,3.20
2022-12-18T12:35:23.208Z,3.20
2022-12-18T12:38:07.885Z,3.20
2022-12-18T12:41:00.604Z,4.50
2022-12-18T12:43:36.874Z,4.40
2022-12-18T12:46:08.091Z,3.20
2022-12-18T12:48:35.476Z,3.20
2022-12-18T12:51:05.378Z,3.20
2022-12-18T12:53:35.622Z,3.30
2022-12-18T12:56:04.296Z,3.30
2022-12-18T12:58:50.699Z,3.20
2022-12-18T13:01:30.380Z,3.30
2022-12-18T13:04:01.102Z,3.20
2022-12-18T13:06:44.520Z,3.30
2022-12-18T13:09:12.007Z,3.30
2022-12-18T13:12:00.294Z,3.30
2022-12-18T13:14:29.800Z,3.30
2022-12-18T13:17:16.440Z,3.40
2022-12-18T13:19:43.948Z,3.30
2022-12-18T13:22:25.333Z,3.30
2022-12-18T13:24:52.469Z,2.70
2022-12-18T13:27:39.175Z,3.30
2022-12-18T13:30:26.240Z,3.40
2022-12-18T13:33:14.472Z,3.40
2022-12-18T13:35:47.921Z,3.40
2022-12-18T13:38:25.558Z,3.40
2022-12-18T13:40:56.515Z,3.30
2022-12-18T13:43:23.641Z,3.30
2022-12-18T13:45:51.228Z,3.30
2022-12-18T13:48:21.322Z,3.30
2022-12-18T13:50:58.199Z,3.50
2022-12-18T13:53:31.151Z,3.30
2022-12-18T13:55:58.500Z,3.30
2022-12-18T13:58:25.613Z,3.30
2022-12-18T14:00:52.735Z,3.30
2022-12-18T14:03:22.609Z,3.20
2022-12-18T14:05:58.016Z,3.20
2022-12-18T14:08:27.358Z,3.20
2022-12-18T14:10:54.773Z,3.30
2022-12-18T14:13:30.512Z,3.30
2022-12-18T14:15:58.693Z,3.30
2022-12-18T14:18:30.561Z,3.20
2022-12-18T14:20:58.543Z,3.20
2022-12-18T14:23:46.237Z,3.70
2022-12-18T14:26:24.104Z,3.30
2022-12-18T14:28:51.374Z,3.30
2022-12-18T14:31:19.536Z,3.40
2022-12-18T14:33:46.852Z,3.40
2022-12-18T14:36:17.224Z,3.40
2022-12-18T14:38:44.489Z,3.40
2022-12-18T14:41:12.824Z,3.40
2022-12-18T14:43:41.605Z,3.40
2022-12-18T14:46:27.656Z,3.40
2022-12-18T14:48:55.067Z,3.40
2022-12-18T14:51:27.786Z,3.40
2022-12-18T14:53:57.094Z,3.40
2022-12-18T14:56:28.769Z,3.40
2022-12-18T14:58:56.412Z,3.40
2022-12-18T15:01:24.170Z,3.40
2022-12-18T15:03:52.155Z,3.40
2022-12-18T15:06:28.489Z,3.40
2022-12-18T15:08:55.812Z,3.40
2022-12-18T15:11:41.275Z,3.40
2022-12-18T15:14:25.471Z,3.40
2022-12-18T15:16:55.640Z,3.40
2022-12-18T15:19:23.794Z,3.40
2022-12-18T15:21:50.933Z,3.90
2022-12-18T15:24:19.323Z,3.40
2022-12-18T15:26:46.459Z,3.40
2022-12-18T15:29:21.045Z,3.50
2022-12-18T15:32:11.060Z,3.50
2022-12-18T15:34:38.360Z,3.40
2022-12-18T15:37:05.546Z,3.50
2022-12-18T15:39:32.704Z,3.40
2022-12-18T15:42:20.164Z,3.50
2022-12-18T15:44:47.442Z,3.60
2022-12-18T15:47:16.773Z,3.60
2022-12-18T15:49:43.855Z,3.50
2022-12-18T15:52:13.493Z,3.80
2022-12-18T15:54:59.351Z,3.60
2022-12-18T15:57:26.596Z,3.60
2022-12-18T15:59:55.162Z,3.60
2022-12-18T16:02:24.305Z,3.70
2022-12-18T16:04:52.509Z,3.70
2022-12-18T16:07:23.061Z,3.70
2022-12-18T16:09:52.313Z,4.80
2022-12-18T16:12:21.808Z,3.70
2022-12-18T16:14:49.268Z,3.60
2022-12-18T16:17:16.841Z,3.70
2022-12-18T16:19:44.631Z,3.70
2022-12-18T16:22:23.051Z,3.70
2022-12-18T16:24:50.760Z,3.70
2022-12-18T16:27:17.952Z,3.70
2022-12-18T16:29:45.071Z,3.80
2022-12-18T16:32:19.787Z,3.80
2022-12-18T16:34:47.191Z,3.80
2022-12-18T16:37:15.020Z,3.90
2022-12-18T16:39:42.443Z,3.90
2022-12-18T16:42:18.371Z,4.00
2022-12-18T16:44:46.835Z,3.90
2022-12-18T16:47:15.402Z,4.00
2022-12-18T16:49:43.303Z,4.00
2022-12-18T16:52:10.515Z,4.00
2022-12-18T16:54:37.817Z,4.10
2022-12-18T16:57:08.122Z,4.10
2022-12-18T16:59:35.279Z,4.10
2022-12-18T17:02:06.058Z,4.10
2022-12-18T17:04:34.231Z,4.10
2022-12-18T17:07:01.352Z,4.10
2022-12-18T17:09:28.635Z,6.30
2022-12-18T17:11:55.703Z,4.20
2022-12-18T17:14:24.641Z,4.10
2022-12-18T17:17:19.104Z,4.20
2022-12-18T17:19:39.946Z,4.20
2022-12-18T17:22:10.172Z,4.20
2022-12-18T17:24:52.072Z,4.30
2022-12-18T17:27:19.353Z,4.30
2022-12-18T17:29:48.333Z,4.30
2022-12-18T17:32:16.995Z,4.30
2022-12-18T17:34:44.184Z,4.30
2022-12-18T17:37:11.347Z,4.40
2022-12-18T17:39:38.547Z,4.40
2022-12-18T17:42:05.800Z,4.40
2022-12-18T17:44:34.784Z,4.50
2022-12-18T17:47:02.200Z,4.50
2022-12-18T17:49:29.573Z,4.50
2022-12-18T17:51:56.653Z,4.50
2022-12-18T17:54:23.760Z,4.60
2022-12-18T17:56:50.901Z,4.60
2022-12-18T17:59:18.062Z,4.60
2022-12-18T18:01:45.700Z,4.60
2022-12-18T18:04:13.223Z,4.60
2022-12-18T18:06:40.485Z,4.70
2022-12-18T18:09:16.028Z,4.70
2022-12-18T18:12:03.785Z,4.70
2022-12-18T18:14:31.578Z,4.80
2022-12-18T18:17:04.254Z,4.70
2022-12-18T18:19:32.425Z,4.80
2022-12-18T18:21:59.625Z,4.80
2022-12-18T18:24:26.771Z,4.80
2022-12-18T18:26:53.858Z,4.80
2022-12-18T18:29:22.358Z,4.80
2022-12-18T18:31:50.222Z,4.90
2022-12-18T18:34:22.408Z,4.80
2022-12-18T18:36:49.579Z,4.80
2022-12-18T18:39:16.699Z,5.50
2022-12-18T18:41:47.923Z,4.90
2022-12-18T18:44:19.071Z,4.90
2022-12-18T18:46:47.408Z,4.90
2022-12-18T18:49:14.917Z,6.70
2022-12-18T18:51:42.433Z,5.00
2022-12-18T18:54:10.144Z,5.10
2022-12-18T18:59:31.302Z,5.10
2022-12-18T19:02:00.670Z,5.10
2022-12-18T19:04:32.174Z,5.20
2022-12-18T19:06:59.301Z,5.20
2022-12-18T19:09:26.747Z,5.20
2022-12-18T19:12:15.673Z,5.30
2022-12-18T19:14:43.541Z,5.30
2022-12-18T19:17:12.328Z,5.30
2022-12-18T19:19:39.645Z,5.30
2022-12-18T19:22:07.409Z,5.30
2022-12-18T19:24:39.305Z,5.30
2022-12-18T19:27:06.704Z,5.40
2022-12-18T19:29:33.890Z,5.40
2022-12-18T19:32:04.294Z,5.40
2022-12-18T19:34:31.503Z,5.40
2022-12-18T19:36:59.885Z,4.40
2022-12-18T19:39:27.704Z,5.50
2022-12-18T19:41:55.071Z,5.50
2022-12-18T19:44:22.183Z,5.50
2022-12-18T19:46:52.240Z,5.50
2022-12-18T19:49:19.367Z,5.50
2022-12-18T19:51:46.673Z,5.50
2022-12-18T19:54:16.969Z,5.60
2022-12-18T19:56:45.378Z,5.60
2022-12-18T19:59:12.958Z,5.70
2022-12-18T20:01:40.586Z,5.70
2022-12-18T20:04:08.100Z,5.70
2022-12-18T20:06:45.377Z,5.70
2022-12-18T20:09:14.836Z,5.70
2022-12-18T20:11:42.913Z,5.80
2022-12-18T20:14:23.396Z,5.80
2022-12-18T20:16:52.228Z,5.90
2022-12-18T20:19:19.693Z,5.90
2022-12-18T20:21:47.936Z,5.90
2022-12-18T20:24:15.089Z,5.00
2022-12-18T20:26:42.265Z,6.00
2022-12-18T20:29:09.631Z,6.00
2022-12-18T20:31:36.921Z,7.40
2022-12-18T20:34:06.036Z,6.10
2022-12-18T20:36:36.290Z,6.10
2022-12-18T20:39:07.236Z,6.20
2022-12-18T20:41:37.965Z,6.20
2022-12-18T20:44:15.563Z,6.20
2022-12-18T20:46:55.356Z,6.20
2022-12-18T20:49:23.140Z,6.20
2022-12-18T20:51:51.656Z,6.20
2022-12-18T20:54:18.810Z,6.30
2022-12-18T20:56:45.866Z,6.30
2022-12-18T20:59:13.008Z,6.30
2022-12-18T21:01:40.813Z,6.30
2022-12-18T21:04:16.231Z,6.40
2022-12-18T21:06:49.392Z,6.40
2022-12-18T21:09:19.530Z,6.40
2022-12-18T21:12:05.440Z,6.50
2022-12-18T21:14:33.114Z,6.50
2022-12-18T21:17:02.248Z,6.50
2022-12-18T21:19:29.995Z,6.60
2022-12-18T21:21:57.715Z,6.60
2022-12-18T21:24:25.661Z,6.80
2022-12-18T21:26:54.460Z,6.80
2022-12-18T21:29:23.388Z,6.80
2022-12-18T21:31:51.017Z,7.20
2022-12-18T21:34:19.748Z,6.80
2022-12-18T21:36:47.475Z,6.90
2022-12-18T21:39:15.036Z,7.00
2022-12-18T21:42:00.878Z,7.00
2022-12-18T21:44:28.209Z,6.90
2022-12-18T21:47:01.559Z,7.00
2022-12-18T21:49:33.573Z,7.10
2022-12-18T21:52:01.051Z,7.00
2022-12-18T21:54:33.878Z,7.00
2022-12-18T21:57:02.452Z,7.10
2022-12-18T21:59:31.065Z,7.10
2022-12-18T22:02:02.719Z,7.00
2022-12-18T22:04:30.110Z,7.10
2022-12-18T22:06:57.507Z,7.10
2022-12-18T22:09:25.707Z,8.40
2022-12-18T22:11:53.011Z,7.10
2022-12-18T22:14:21.037Z,8.00
2022-12-18T22:16:48.239Z,7.30
2022-12-18T22:19:16.888Z,7.20
2022-12-18T22:21:45.971Z,7.20
2022-12-18T22:24:17.688Z,7.40
2022-12-18T22:26:45.266Z,7.30
2022-12-18T22:29:48.963Z,7.30
2022-12-18T22:32:22.098Z,7.30
2022-12-18T22:35:05.328Z,7.30
2022-12-18T22:37:35.333Z,7.40
2022-12-18T22:40:05.098Z,7.40
2022-12-18T22:42:33.081Z,7.40
2022-12-18T22:45:00.451Z,7.50
2022-12-18T22:47:30.025Z,7.40
2022-12-18T22:49:58.174Z,7.50
2022-12-18T22:52:25.580Z,7.50
2022-12-18T22:54:53.856Z,7.60
2022-12-18T22:57:21.989Z,7.60
2022-12-18T22:59:49.733Z,7.60
2022-12-18T23:02:19.196Z,7.60
2022-12-18T23:04:47.755Z,7.50
2022-12-18T23:07:15.825Z,7.60
2022-12-18T23:09:43.218Z,7.60
2022-12-18T23:12:14.887Z,7.60
2022-12-18T23:14:42.406Z,7.70
2022-12-18T23:17:09.562Z,7.70
2022-12-18T23:19:36.873Z,7.40
2022-12-18T23:22:11.576Z,7.70
2022-12-18T23:24:39.173Z,7.70
2022-12-18T23:27:09.085Z,7.70
2022-12-18T23:29:40.143Z,7.70
2022-12-18T23:32:07.223Z,7.70
2022-12-18T23:34:34.316Z,7.80
2022-12-18T23:37:03.698Z,7.80
2022-12-18T23:39:31.027Z,7.80
2022-12-18T23:41:58.983Z,7.80
2022-12-18T23:44:26.276Z,7.80
2022-12-18T23:46:53.693Z,7.90
2022-12-18T23:49:21.277Z,8.00
2022-12-18T23:51:48.618Z,8.00
2022-12-18T23:54:15.745Z,8.00
2022-12-18T23:56:42.945Z,8.10
2022-12-18T23:59:10.181Z,8.10
